sensor_id;sensor_type;location;lat;lon;timestamp;temperature;humidity
34989;DHT22;21192;40.182;44.516;2023-12-07T00:01:09;10.30;99.90
34989;DHT22;21192;40.182;44.516;2023-12-07T00:03:35;10.20;99.90
34989;DHT22;21192;40.182;44.516;2023-12-07T00:06:01;10.20;99.90
34989;DHT22;21192;40.182;44.516;2023-12-07T00:08:27;10.20;99.90
34989;DHT22;21192;40.182;44.516;2023-12-07T00:10:53;10.20;99.90
34989;DHT22;21192;40.182;44.516;2023-12-07T00:13:19;10.20;99.90
34989;DHT22;21192;40.182;44.516;2023-12-07T00:15:44;10.20;99.90
34989;DHT22;21192;40.182;44.516;2023-12-07T00:18:10;10.10;99.90
34989;DHT22;21192;40.182;44.516;2023-12-07T00:20:36;10.10;99.90
34989;DHT22;21192;40.182;44.516;2023-12-07T00:23:02;10.10;99.90
34989;DHT22;21192;40.182;44.516;2023-12-07T00:25:28;10.20;99.90
34989;DHT22;21192;40.182;44.516;2023-12-07T00:27:54;10.20;99.90
34989;DHT22;21192;40.182;44.516;2023-12-07T00:30:20;10.10;99.90
34989;DHT22;21192;40.182;44.516;2023-12-07T00:32:46;10.10;99.90
34989;DHT22;21192;40.182;44.516;2023-12-07T00:35:12;10.10;99.90
34989;DHT22;21192;40.182;44.516;2023-12-07T00:37:39;10.10;99.90
34989;DHT22;21192;40.182;44.516;2023-12-07T00:40:05;10.10;99.90
34989;DHT22;21192;40.182;44.516;2023-12-07T00:42:33;10.00;99.90
34989;DHT22;21192;40.182;44.516;2023-12-07T00:45:00;10.00;99.90
34989;DHT22;21192;40.182;44.516;2023-12-07T00:47:26;10.00;99.90
34989;DHT22;21192;40.182;44.516;2023-12-07T00:49:52;10.00;99.90
34989;DHT22;21192;40.182;44.516;2023-12-07T00:52:19;10.10;99.90
34989;DHT22;21192;40.182;44.516;2023-12-07T00:54:44;10.10;99.90
34989;DHT22;21192;40.182;44.516;2023-12-07T00:57:10;10.00;99.90
34989;DHT22;21192;40.182;44.516;2023-12-07T00:59:36;10.00;99.90
34989;DHT22;21192;40.182;44.516;2023-12-07T01:02:03;10.00;99.90
34989;DHT22;21192;40.182;44.516;2023-12-07T01:04:31;10.10;99.90
34989;DHT22;21192;40.182;44.516;2023-12-07T01:06:57;10.00;99.90
34989;DHT22;21192;40.182;44.516;2023-12-07T01:09:24;10.00;99.90
34989;DHT22;21192;40.182;44.516;2023-12-07T01:11:50;10.00;99.90
34989;DHT22;21192;40.182;44.516;2023-12-07T01:14:16;10.00;99.90
34989;DHT22;21192;40.182;44.516;2023-12-07T01:16:42;10.10;99.90
34989;DHT22;21192;40.182;44.516;2023-12-07T01:19:08;10.10;99.90
34989;DHT22;21192;40.182;44.516;2023-12-07T01:21:34;10.10;99.90
34989;DHT22;21192;40.182;44.516;2023-12-07T01:24:00;10.10;99.90
34989;DHT22;21192;40.182;44.516;2023-12-07T01:26:26;10.10;99.90
34989;DHT22;21192;40.182;44.516;2023-12-07T01:28:52;10.20;99.90
34989;DHT22;21192;40.182;44.516;2023-12-07T01:31:18;10.10;99.90
34989;DHT22;21192;40.182;44.516;2023-12-07T01:33:44;10.00;99.90
34989;DHT22;21192;40.182;44.516;2023-12-07T01:36:11;10.00;99.90
34989;DHT22;21192;40.182;44.516;2023-12-07T01:38:37;10.10;99.90
34989;DHT22;21192;40.182;44.516;2023-12-07T01:41:03;10.00;99.90
34989;DHT22;21192;40.182;44.516;2023-12-07T01:43:29;10.10;99.90
34989;DHT22;21192;40.182;44.516;2023-12-07T01:45:57;10.00;99.90
34989;DHT22;21192;40.182;44.516;2023-12-07T01:48:25;10.00;99.90
34989;DHT22;21192;40.182;44.516;2023-12-07T01:50:55;10.00;99.90
34989;DHT22;21192;40.182;44.516;2023-12-07T01:53:23;10.10;99.90
34989;DHT22;21192;40.182;44.516;2023-12-07T01:55:51;10.10;99.90
34989;DHT22;21192;40.182;44.516;2023-12-07T01:58:18;10.20;99.90
34989;DHT22;21192;40.182;44.516;2023-12-07T02:00:45;10.20;99.90
34989;DHT22;21192;40.182;44.516;2023-12-07T02:03:12;10.20;99.90
34989;DHT22;21192;40.182;44.516;2023-12-07T02:05:42;10.20;99.90
34989;DHT22;21192;40.182;44.516;2023-12-07T02:08:08;10.10;99.90
34989;DHT22;21192;40.182;44.516;2023-12-07T02:10:34;10.10;99.90
34989;DHT22;21192;40.182;44.516;2023-12-07T02:13:01;10.10;99.90
34989;DHT22;21192;40.182;44.516;2023-12-07T02:15:27;10.00;99.90
34989;DHT22;21192;40.182;44.516;2023-12-07T02:18:44;10.00;99.90
34989;DHT22;21192;40.182;44.516;2023-12-07T02:23:32;10.20;99.90
34989;DHT22;21192;40.182;44.516;2023-12-07T02:26:22;10.30;99.90
34989;DHT22;21192;40.182;44.516;2023-12-07T02:29:14;10.30;99.90
34989;DHT22;21192;40.182;44.516;2023-12-07T02:31:40;10.20;99.90
34989;DHT22;21192;40.182;44.516;2023-12-07T02:34:06;10.30;99.90
34989;DHT22;21192;40.182;44.516;2023-12-07T02:36:33;10.30;99.90
34989;DHT22;21192;40.182;44.516;2023-12-07T02:39:01;10.30;99.90
34989;DHT22;21192;40.182;44.516;2023-12-07T02:41:31;10.30;99.90
34989;DHT22;21192;40.182;44.516;2023-12-07T02:43:58;10.40;99.90
34989;DHT22;21192;40.182;44.516;2023-12-07T02:46:25;10.40;99.90
34989;DHT22;21192;40.182;44.516;2023-12-07T02:48:51;10.30;99.90
34989;DHT22;21192;40.182;44.516;2023-12-07T02:51:17;10.20;99.90
34989;DHT22;21192;40.182;44.516;2023-12-07T02:53:43;10.20;99.90
34989;DHT22;21192;40.182;44.516;2023-12-07T02:56:09;10.20;99.90
34989;DHT22;21192;40.182;44.516;2023-12-07T02:58:35;10.30;99.90
34989;DHT22;21192;40.182;44.516;2023-12-07T03:01:01;10.30;99.90
34989;DHT22;21192;40.182;44.516;2023-12-07T03:03:26;10.20;99.90
34989;DHT22;21192;40.182;44.516;2023-12-07T03:05:52;10.20;99.90
34989;DHT22;21192;40.182;44.516;2023-12-07T03:08:18;10.10;99.90
34989;DHT22;21192;40.182;44.516;2023-12-07T03:10:44;10.10;99.90
34989;DHT22;21192;40.182;44.516;2023-12-07T03:13:10;10.20;99.90
34989;DHT22;21192;40.182;44.516;2023-12-07T03:15:36;10.10;99.90
34989;DHT22;21192;40.182;44.516;2023-12-07T03:18:02;10.20;99.90
34989;DHT22;21192;40.182;44.516;2023-12-07T03:20:27;10.10;99.90
34989;DHT22;21192;40.182;44.516;2023-12-07T03:22:53;10.20;99.90
34989;DHT22;21192;40.182;44.516;2023-12-07T03:25:19;10.20;99.90
34989;DHT22;21192;40.182;44.516;2023-12-07T03:27:45;10.20;99.90
34989;DHT22;21192;40.182;44.516;2023-12-07T03:30:11;10.20;99.90
34989;DHT22;21192;40.182;44.516;2023-12-07T03:32:37;10.30;99.90
34989;DHT22;21192;40.182;44.516;2023-12-07T03:35:03;10.20;99.90
34989;DHT22;21192;40.182;44.516;2023-12-07T03:37:29;10.20;99.90
34989;DHT22;21192;40.182;44.516;2023-12-07T03:39:55;10.30;99.90
34989;DHT22;21192;40.182;44.516;2023-12-07T03:42:21;10.40;99.90
34989;DHT22;21192;40.182;44.516;2023-12-07T03:44:47;10.50;99.90
34989;DHT22;21192;40.182;44.516;2023-12-07T03:47:13;10.50;99.90
34989;DHT22;21192;40.182;44.516;2023-12-07T03:49:39;10.40;99.90
34989;DHT22;21192;40.182;44.516;2023-12-07T03:52:06;10.30;99.90
34989;DHT22;21192;40.182;44.516;2023-12-07T03:54:32;10.30;99.90
34989;DHT22;21192;40.182;44.516;2023-12-07T03:56:58;10.30;99.90
34989;DHT22;21192;40.182;44.516;2023-12-07T03:59:24;10.30;99.90
34989;DHT22;21192;40.182;44.516;2023-12-07T04:01:50;10.30;99.90
34989;DHT22;21192;40.182;44.516;2023-12-07T04:04:16;10.30;99.90
34989;DHT22;21192;40.182;44.516;2023-12-07T04:06:41;10.30;99.90
34989;DHT22;21192;40.182;44.516;2023-12-07T04:09:07;10.30;99.90
34989;DHT22;21192;40.182;44.516;2023-12-07T04:11:33;10.30;99.90
34989;DHT22;21192;40.182;44.516;2023-12-07T04:13:59;10.30;99.90
34989;DHT22;21192;40.182;44.516;2023-12-07T04:16:25;10.30;99.90
34989;DHT22;21192;40.182;44.516;2023-12-07T04:18:51;10.40;99.90
34989;DHT22;21192;40.182;44.516;2023-12-07T04:21:17;10.40;99.90
34989;DHT22;21192;40.182;44.516;2023-12-07T04:23:43;10.30;99.90
34989;DHT22;21192;40.182;44.516;2023-12-07T04:26:09;10.30;99.90
34989;DHT22;21192;40.182;44.516;2023-12-07T04:28:35;10.20;99.90
34989;DHT22;21192;40.182;44.516;2023-12-07T04:31:00;10.00;99.90
34989;DHT22;21192;40.182;44.516;2023-12-07T04:33:26;9.90;99.90
34989;DHT22;21192;40.182;44.516;2023-12-07T04:35:52;9.90;99.90
34989;DHT22;21192;40.182;44.516;2023-12-07T04:38:18;9.90;99.90
34989;DHT22;21192;40.182;44.516;2023-12-07T04:40:44;9.80;99.90
34989;DHT22;21192;40.182;44.516;2023-12-07T04:43:10;9.80;99.90
34989;DHT22;21192;40.182;44.516;2023-12-07T04:45:36;9.70;99.90
34989;DHT22;21192;40.182;44.516;2023-12-07T04:48:01;9.80;99.90
34989;DHT22;21192;40.182;44.516;2023-12-07T04:50:29;9.80;99.90
34989;DHT22;21192;40.182;44.516;2023-12-07T04:52:55;9.90;99.90
34989;DHT22;21192;40.182;44.516;2023-12-07T04:55:20;9.90;99.90
34989;DHT22;21192;40.182;44.516;2023-12-07T04:57:46;10.00;99.90
34989;DHT22;21192;40.182;44.516;2023-12-07T05:00:12;10.20;99.90
34989;DHT22;21192;40.182;44.516;2023-12-07T05:02:39;10.20;99.90
34989;DHT22;21192;40.182;44.516;2023-12-07T05:05:05;10.30;99.90
34989;DHT22;21192;40.182;44.516;2023-12-07T05:07:31;10.60;99.90
34989;DHT22;21192;40.182;44.516;2023-12-07T05:09:57;10.80;99.90
34989;DHT22;21192;40.182;44.516;2023-12-07T05:12:23;10.80;99.90
34989;DHT22;21192;40.182;44.516;2023-12-07T05:14:49;11.10;99.90
34989;DHT22;21192;40.182;44.516;2023-12-07T05:17:16;11.20;99.90
34989;DHT22;21192;40.182;44.516;2023-12-07T05:19:43;11.30;99.90
34989;DHT22;21192;40.182;44.516;2023-12-07T05:22:09;11.30;99.90
34989;DHT22;21192;40.182;44.516;2023-12-07T05:24:35;11.30;99.90
34989;DHT22;21192;40.182;44.516;2023-12-07T05:27:01;11.40;99.90
34989;DHT22;21192;40.182;44.516;2023-12-07T05:29:27;11.50;99.90
34989;DHT22;21192;40.182;44.516;2023-12-07T05:31:53;11.50;99.90
34989;DHT22;21192;40.182;44.516;2023-12-07T05:34:19;11.50;99.90
34989;DHT22;21192;40.182;44.516;2023-12-07T05:36:45;11.40;99.90
34989;DHT22;21192;40.182;44.516;2023-12-07T05:39:12;11.20;99.90
34989;DHT22;21192;40.182;44.516;2023-12-07T05:41:38;11.20;99.90
34989;DHT22;21192;40.182;44.516;2023-12-07T05:44:04;11.30;99.90
34989;DHT22;21192;40.182;44.516;2023-12-07T05:46:31;11.20;99.90
34989;DHT22;21192;40.182;44.516;2023-12-07T05:48:57;11.10;99.90
34989;DHT22;21192;40.182;44.516;2023-12-07T05:51:23;11.10;99.90
34989;DHT22;21192;40.182;44.516;2023-12-07T05:53:49;11.10;99.90
34989;DHT22;21192;40.182;44.516;2023-12-07T05:56:18;11.20;99.90
34989;DHT22;21192;40.182;44.516;2023-12-07T05:58:46;11.20;99.90
34989;DHT22;21192;40.182;44.516;2023-12-07T06:01:12;11.10;99.90
34989;DHT22;21192;40.182;44.516;2023-12-07T06:03:38;11.10;99.90
34989;DHT22;21192;40.182;44.516;2023-12-07T06:06:04;11.10;99.90
34989;DHT22;21192;40.182;44.516;2023-12-07T06:08:30;11.10;99.90
34989;DHT22;21192;40.182;44.516;2023-12-07T06:10:56;11.20;99.90
34989;DHT22;21192;40.182;44.516;2023-12-07T06:13:22;11.30;99.90
34989;DHT22;21192;40.182;44.516;2023-12-07T06:15:48;11.40;99.90
34989;DHT22;21192;40.182;44.516;2023-12-07T06:18:14;11.50;99.90
34989;DHT22;21192;40.182;44.516;2023-12-07T06:20:40;11.50;99.90
34989;DHT22;21192;40.182;44.516;2023-12-07T06:23:07;11.60;99.90
34989;DHT22;21192;40.182;44.516;2023-12-07T06:25:39;11.70;99.90
34989;DHT22;21192;40.182;44.516;2023-12-07T06:28:05;11.80;99.90
34989;DHT22;21192;40.182;44.516;2023-12-07T06:30:30;11.90;99.90
34989;DHT22;21192;40.182;44.516;2023-12-07T06:32:57;11.90;99.90
34989;DHT22;21192;40.182;44.516;2023-12-07T06:35:23;12.00;99.90
34989;DHT22;21192;40.182;44.516;2023-12-07T06:37:49;12.00;99.90
34989;DHT22;21192;40.182;44.516;2023-12-07T06:40:15;12.20;99.90
34989;DHT22;21192;40.182;44.516;2023-12-07T06:42:41;12.80;99.50
34989;DHT22;21192;40.182;44.516;2023-12-07T06:45:07;13.40;98.20
34989;DHT22;21192;40.182;44.516;2023-12-07T06:47:40;14.30;96.70
34989;DHT22;21192;40.182;44.516;2023-12-07T06:50:08;16.00;94.30
34989;DHT22;21192;40.182;44.516;2023-12-07T06:52:39;16.70;91.40
34989;DHT22;21192;40.182;44.516;2023-12-07T06:55:05;16.30;89.00
34989;DHT22;21192;40.182;44.516;2023-12-07T06:57:31;16.00;86.70
34989;DHT22;21192;40.182;44.516;2023-12-07T06:59:57;15.60;85.60
34989;DHT22;21192;40.182;44.516;2023-12-07T07:02:23;15.20;85.10
34989;DHT22;21192;40.182;44.516;2023-12-07T07:04:49;15.00;85.00
34989;DHT22;21192;40.182;44.516;2023-12-07T07:07:15;14.80;85.10
34989;DHT22;21192;40.182;44.516;2023-12-07T07:09:42;14.50;85.90
34989;DHT22;21192;40.182;44.516;2023-12-07T07:12:08;14.50;86.90
34989;DHT22;21192;40.182;44.516;2023-12-07T07:14:34;14.60;87.30
34989;DHT22;21192;40.182;44.516;2023-12-07T07:17:00;14.90;87.00
34989;DHT22;21192;40.182;44.516;2023-12-07T07:19:26;15.00;86.20
34989;DHT22;21192;40.182;44.516;2023-12-07T07:21:51;14.90;85.30
34989;DHT22;21192;40.182;44.516;2023-12-07T07:24:17;14.70;85.80
34989;DHT22;21192;40.182;44.516;2023-12-07T07:26:43;14.60;86.70
34989;DHT22;21192;40.182;44.516;2023-12-07T07:29:09;14.40;87.50
34989;DHT22;21192;40.182;44.516;2023-12-07T07:31:35;14.50;88.00
34989;DHT22;21192;40.182;44.516;2023-12-07T07:34:02;14.40;88.10
34989;DHT22;21192;40.182;44.516;2023-12-07T07:36:28;14.40;88.40
34989;DHT22;21192;40.182;44.516;2023-12-07T07:38:54;14.10;89.10
34989;DHT22;21192;40.182;44.516;2023-12-07T07:41:20;14.20;89.80
34989;DHT22;21192;40.182;44.516;2023-12-07T07:43:46;14.20;89.90
34989;DHT22;21192;40.182;44.516;2023-12-07T07:46:13;14.30;90.00
34989;DHT22;21192;40.182;44.516;2023-12-07T07:48:39;14.20;90.00
34989;DHT22;21192;40.182;44.516;2023-12-07T07:51:05;14.20;90.30
34989;DHT22;21192;40.182;44.516;2023-12-07T07:53:31;14.20;90.70
34989;DHT22;21192;40.182;44.516;2023-12-07T07:55:57;14.30;91.00
34989;DHT22;21192;40.182;44.516;2023-12-07T07:58:23;14.40;91.20
34989;DHT22;21192;40.182;44.516;2023-12-07T08:00:48;14.50;91.30
34989;DHT22;21192;40.182;44.516;2023-12-07T08:03:14;14.80;90.60
34989;DHT22;21192;40.182;44.516;2023-12-07T08:05:40;14.90;90.30
34989;DHT22;21192;40.182;44.516;2023-12-07T08:08:06;15.00;90.10
34989;DHT22;21192;40.182;44.516;2023-12-07T08:10:33;15.10;89.90
34989;DHT22;21192;40.182;44.516;2023-12-07T08:12:59;15.00;89.30
34989;DHT22;21192;40.182;44.516;2023-12-07T08:15:24;14.70;89.40
34989;DHT22;21192;40.182;44.516;2023-12-07T08:17:50;14.70;89.70
34989;DHT22;21192;40.182;44.516;2023-12-07T08:20:16;14.70;89.70
34989;DHT22;21192;40.182;44.516;2023-12-07T08:22:43;14.70;89.90
34989;DHT22;21192;40.182;44.516;2023-12-07T08:25:10;14.70;89.80
34989;DHT22;21192;40.182;44.516;2023-12-07T08:27:37;14.60;89.90
34989;DHT22;21192;40.182;44.516;2023-12-07T08:30:04;14.60;89.90
34989;DHT22;21192;40.182;44.516;2023-12-07T08:32:30;14.70;89.90
34989;DHT22;21192;40.182;44.516;2023-12-07T08:34:56;14.70;89.90
34989;DHT22;21192;40.182;44.516;2023-12-07T08:37:22;14.60;89.90
34989;DHT22;21192;40.182;44.516;2023-12-07T08:39:48;14.60;89.50
34989;DHT22;21192;40.182;44.516;2023-12-07T08:42:14;14.30;89.40
34989;DHT22;21192;40.182;44.516;2023-12-07T08:44:40;14.30;89.90
34989;DHT22;21192;40.182;44.516;2023-12-07T08:47:06;14.20;89.80
34989;DHT22;21192;40.182;44.516;2023-12-07T08:49:32;14.20;90.10
34989;DHT22;21192;40.182;44.516;2023-12-07T08:51:58;14.20;90.10
34989;DHT22;21192;40.182;44.516;2023-12-07T08:54:24;14.30;90.00
34989;DHT22;21192;40.182;44.516;2023-12-07T08:56:51;14.30;90.00
34989;DHT22;21192;40.182;44.516;2023-12-07T08:59:17;14.40;90.00
34989;DHT22;21192;40.182;44.516;2023-12-07T09:01:43;14.40;89.60
34989;DHT22;21192;40.182;44.516;2023-12-07T09:04:09;14.40;89.40
34989;DHT22;21192;40.182;44.516;2023-12-07T09:06:36;14.30;89.20
34989;DHT22;21192;40.182;44.516;2023-12-07T09:09:03;14.20;89.50
34989;DHT22;21192;40.182;44.516;2023-12-07T09:11:30;14.00;89.80
34989;DHT22;21192;40.182;44.516;2023-12-07T09:13:56;13.90;90.20
34989;DHT22;21192;40.182;44.516;2023-12-07T09:16:22;13.90;90.30
34989;DHT22;21192;40.182;44.516;2023-12-07T09:18:48;14.00;90.30
34989;DHT22;21192;40.182;44.516;2023-12-07T09:21:14;14.20;90.10
34989;DHT22;21192;40.182;44.516;2023-12-07T09:23:40;14.20;90.00
34989;DHT22;21192;40.182;44.516;2023-12-07T09:26:06;14.10;90.00
34989;DHT22;21192;40.182;44.516;2023-12-07T09:28:33;14.20;90.10
34989;DHT22;21192;40.182;44.516;2023-12-07T09:30:59;14.20;90.00
34989;DHT22;21192;40.182;44.516;2023-12-07T09:33:25;14.20;90.00
34989;DHT22;21192;40.182;44.516;2023-12-07T09:35:51;14.10;90.10
34989;DHT22;21192;40.182;44.516;2023-12-07T09:38:17;14.20;90.20
34989;DHT22;21192;40.182;44.516;2023-12-07T09:40:45;14.10;90.30
34989;DHT22;21192;40.182;44.516;2023-12-07T09:43:11;14.10;90.30
34989;DHT22;21192;40.182;44.516;2023-12-07T09:45:37;14.20;90.30
34989;DHT22;21192;40.182;44.516;2023-12-07T09:48:04;14.20;90.20
34989;DHT22;21192;40.182;44.516;2023-12-07T09:50:30;14.20;90.30
34989;DHT22;21192;40.182;44.516;2023-12-07T09:52:58;14.20;90.30
34989;DHT22;21192;40.182;44.516;2023-12-07T09:55:24;14.20;90.30
34989;DHT22;21192;40.182;44.516;2023-12-07T09:57:53;14.10;90.50
34989;DHT22;21192;40.182;44.516;2023-12-07T10:00:22;14.20;90.50
34989;DHT22;21192;40.182;44.516;2023-12-07T10:02:48;14.20;90.40
34989;DHT22;21192;40.182;44.516;2023-12-07T10:05:15;14.20;90.40
34989;DHT22;21192;40.182;44.516;2023-12-07T10:07:48;14.20;90.50
34989;DHT22;21192;40.182;44.516;2023-12-07T10:10:15;14.20;90.50
34989;DHT22;21192;40.182;44.516;2023-12-07T10:12:59;14.40;90.40
34989;DHT22;21192;40.182;44.516;2023-12-07T10:15:25;14.30;90.20
34989;DHT22;21192;40.182;44.516;2023-12-07T10:17:56;14.30;90.20
34989;DHT22;21192;40.182;44.516;2023-12-07T10:20:24;14.30;90.20
34989;DHT22;21192;40.182;44.516;2023-12-07T10:23:03;14.20;90.20
34989;DHT22;21192;40.182;44.516;2023-12-07T10:25:33;14.20;90.30
34989;DHT22;21192;40.182;44.516;2023-12-07T10:28:00;14.10;90.30
34989;DHT22;21192;40.182;44.516;2023-12-07T10:30:27;13.90;90.60
34989;DHT22;21192;40.182;44.516;2023-12-07T10:32:53;13.60;91.10
34989;DHT22;21192;40.182;44.516;2023-12-07T10:35:19;13.60;91.60
34989;DHT22;21192;40.182;44.516;2023-12-07T10:37:46;13.60;91.80
34989;DHT22;21192;40.182;44.516;2023-12-07T10:40:12;13.70;91.80
34989;DHT22;21192;40.182;44.516;2023-12-07T10:42:40;13.70;91.80
34989;DHT22;21192;40.182;44.516;2023-12-07T10:45:07;13.80;91.80
34989;DHT22;21192;40.182;44.516;2023-12-07T10:47:38;13.70;91.70
34989;DHT22;21192;40.182;44.516;2023-12-07T10:50:07;13.70;91.80
34989;DHT22;21192;40.182;44.516;2023-12-07T10:52:51;13.80;91.80
34989;DHT22;21192;40.182;44.516;2023-12-07T10:55:32;13.80;91.70
34989;DHT22;21192;40.182;44.516;2023-12-07T10:58:01;13.80;91.80
34989;DHT22;21192;40.182;44.516;2023-12-07T11:00:27;13.80;91.70
34989;DHT22;21192;40.182;44.516;2023-12-07T11:02:54;13.90;91.60
34989;DHT22;21192;40.182;44.516;2023-12-07T11:05:20;13.90;91.60
34989;DHT22;21192;40.182;44.516;2023-12-07T11:13:25;13.90;91.60
34989;DHT22;21192;40.182;44.516;2023-12-07T11:15:53;13.90;91.50
34989;DHT22;21192;40.182;44.516;2023-12-07T11:18:18;13.90;91.50
34989;DHT22;21192;40.182;44.516;2023-12-07T11:20:46;14.00;91.40
34989;DHT22;21192;40.182;44.516;2023-12-07T11:23:17;14.00;91.40
34989;DHT22;21192;40.182;44.516;2023-12-07T11:25:46;13.90;91.60
34989;DHT22;21192;40.182;44.516;2023-12-07T11:28:13;13.90;92.00
34989;DHT22;21192;40.182;44.516;2023-12-07T11:30:42;13.90;91.70
34989;DHT22;21192;40.182;44.516;2023-12-07T11:33:10;13.90;91.80
34989;DHT22;21192;40.182;44.516;2023-12-07T11:36:03;13.90;91.70
34989;DHT22;21192;40.182;44.516;2023-12-07T11:38:29;13.90;91.70
34989;DHT22;21192;40.182;44.516;2023-12-07T11:40:56;13.80;91.70
34989;DHT22;21192;40.182;44.516;2023-12-07T11:46:07;13.80;91.80
34989;DHT22;21192;40.182;44.516;2023-12-07T11:48:33;13.90;91.70
34989;DHT22;21192;40.182;44.516;2023-12-07T11:51:01;13.90;91.70
34989;DHT22;21192;40.182;44.516;2023-12-07T11:53:29;13.90;91.70
34989;DHT22;21192;40.182;44.516;2023-12-07T11:55:56;13.90;91.80
34989;DHT22;21192;40.182;44.516;2023-12-07T11:58:28;13.90;91.90
34989;DHT22;21192;40.182;44.516;2023-12-07T12:00:54;13.90;91.90
34989;DHT22;21192;40.182;44.516;2023-12-07T12:03:22;13.80;92.00
34989;DHT22;21192;40.182;44.516;2023-12-07T12:05:48;13.80;92.20
34989;DHT22;21192;40.182;44.516;2023-12-07T12:08:16;13.70;92.30
34989;DHT22;21192;40.182;44.516;2023-12-07T12:10:43;13.70;92.50
34989;DHT22;21192;40.182;44.516;2023-12-07T12:13:09;13.60;92.60
34989;DHT22;21192;40.182;44.516;2023-12-07T12:15:35;13.60;92.80
34989;DHT22;21192;40.182;44.516;2023-12-07T12:18:01;13.50;93.00
34989;DHT22;21192;40.182;44.516;2023-12-07T12:20:28;13.60;93.00
34989;DHT22;21192;40.182;44.516;2023-12-07T12:22:54;13.60;92.90
34989;DHT22;21192;40.182;44.516;2023-12-07T12:25:24;13.70;92.80
34989;DHT22;21192;40.182;44.516;2023-12-07T12:28:03;13.70;92.70
34989;DHT22;21192;40.182;44.516;2023-12-07T12:30:30;13.60;92.80
34989;DHT22;21192;40.182;44.516;2023-12-07T12:32:57;13.50;92.90
34989;DHT22;21192;40.182;44.516;2023-12-07T12:35:23;13.50;93.20
34989;DHT22;21192;40.182;44.516;2023-12-07T12:37:49;13.50;93.20
34989;DHT22;21192;40.182;44.516;2023-12-07T12:40:17;13.60;93.10
34989;DHT22;21192;40.182;44.516;2023-12-07T12:42:47;13.60;93.10
34989;DHT22;21192;40.182;44.516;2023-12-07T12:45:14;13.60;93.10
34989;DHT22;21192;40.182;44.516;2023-12-07T12:47:42;13.70;93.00
34989;DHT22;21192;40.182;44.516;2023-12-07T12:50:10;13.70;93.00
34989;DHT22;21192;40.182;44.516;2023-12-07T12:52:39;13.60;93.10
34989;DHT22;21192;40.182;44.516;2023-12-07T12:55:11;13.50;93.30
34989;DHT22;21192;40.182;44.516;2023-12-07T12:57:38;13.40;93.50
34989;DHT22;21192;40.182;44.516;2023-12-07T13:00:04;13.40;93.70
34989;DHT22;21192;40.182;44.516;2023-12-07T13:02:33;13.40;93.80
34989;DHT22;21192;40.182;44.516;2023-12-07T13:04:59;13.40;94.00
34989;DHT22;21192;40.182;44.516;2023-12-07T13:07:25;13.30;94.10
34989;DHT22;21192;40.182;44.516;2023-12-07T13:09:53;13.30;94.30
34989;DHT22;21192;40.182;44.516;2023-12-07T13:12:20;13.20;94.40
34989;DHT22;21192;40.182;44.516;2023-12-07T13:14:47;13.10;94.60
34989;DHT22;21192;40.182;44.516;2023-12-07T13:17:13;13.10;94.70
34989;DHT22;21192;40.182;44.516;2023-12-07T13:19:39;13.10;94.80
34989;DHT22;21192;40.182;44.516;2023-12-07T13:22:05;13.10;94.90
34989;DHT22;21192;40.182;44.516;2023-12-07T13:24:31;12.90;95.10
34989;DHT22;21192;40.182;44.516;2023-12-07T13:26:57;12.80;95.40
34989;DHT22;21192;40.182;44.516;2023-12-07T13:29:25;12.90;95.50
34989;DHT22;21192;40.182;44.516;2023-12-07T13:31:52;12.90;95.40
34989;DHT22;21192;40.182;44.516;2023-12-07T13:34:18;12.90;95.50
34989;DHT22;21192;40.182;44.516;2023-12-07T13:36:43;12.90;95.50
34989;DHT22;21192;40.182;44.516;2023-12-07T13:39:09;12.90;95.70
34989;DHT22;21192;40.182;44.516;2023-12-07T13:41:38;12.80;95.90
34989;DHT22;21192;40.182;44.516;2023-12-07T13:44:05;12.80;96.00
34989;DHT22;21192;40.182;44.516;2023-12-07T13:46:31;12.80;96.20
34989;DHT22;21192;40.182;44.516;2023-12-07T13:48:58;12.80;96.40
34989;DHT22;21192;40.182;44.516;2023-12-07T13:51:24;12.70;96.60
34989;DHT22;21192;40.182;44.516;2023-12-07T13:53:50;12.70;96.70
34989;DHT22;21192;40.182;44.516;2023-12-07T13:56:21;12.70;96.80
34989;DHT22;21192;40.182;44.516;2023-12-07T13:58:47;12.70;97.00
34989;DHT22;21192;40.182;44.516;2023-12-07T14:01:12;12.70;97.00
34989;DHT22;21192;40.182;44.516;2023-12-07T14:03:38;12.60;97.10
34989;DHT22;21192;40.182;44.516;2023-12-07T14:06:04;12.70;97.20
34989;DHT22;21192;40.182;44.516;2023-12-07T14:08:30;12.70;97.20
34989;DHT22;21192;40.182;44.516;2023-12-07T14:10:57;12.70;97.20
34989;DHT22;21192;40.182;44.516;2023-12-07T14:13:22;12.70;97.30
34989;DHT22;21192;40.182;44.516;2023-12-07T14:15:51;12.60;97.30
34989;DHT22;21192;40.182;44.516;2023-12-07T14:18:17;12.70;97.30
34989;DHT22;21192;40.182;44.516;2023-12-07T14:20:43;12.60;97.40
34989;DHT22;21192;40.182;44.516;2023-12-07T14:23:09;12.60;97.60
34989;DHT22;21192;40.182;44.516;2023-12-07T14:25:35;12.60;97.60
34989;DHT22;21192;40.182;44.516;2023-12-07T14:28:01;12.60;97.60
34989;DHT22;21192;40.182;44.516;2023-12-07T14:30:27;12.70;97.70
34989;DHT22;21192;40.182;44.516;2023-12-07T14:32:53;12.60;97.80
34989;DHT22;21192;40.182;44.516;2023-12-07T14:35:19;12.60;97.90
34989;DHT22;21192;40.182;44.516;2023-12-07T14:37:45;12.60;98.00
34989;DHT22;21192;40.182;44.516;2023-12-07T14:40:12;12.50;98.10
34989;DHT22;21192;40.182;44.516;2023-12-07T14:42:40;12.50;98.30
34989;DHT22;21192;40.182;44.516;2023-12-07T14:45:06;12.50;98.40
34989;DHT22;21192;40.182;44.516;2023-12-07T14:47:32;12.40;98.50
34989;DHT22;21192;40.182;44.516;2023-12-07T14:49:58;12.40;98.60
34989;DHT22;21192;40.182;44.516;2023-12-07T14:52:24;12.50;98.60
34989;DHT22;21192;40.182;44.516;2023-12-07T14:54:50;12.50;98.60
34989;DHT22;21192;40.182;44.516;2023-12-07T14:57:17;12.40;98.50
34989;DHT22;21192;40.182;44.516;2023-12-07T14:59:43;12.50;98.60
34989;DHT22;21192;40.182;44.516;2023-12-07T15:02:09;12.40;98.70
34989;DHT22;21192;40.182;44.516;2023-12-07T15:04:38;12.40;98.70
34989;DHT22;21192;40.182;44.516;2023-12-07T15:07:04;12.40;98.80
34989;DHT22;21192;40.182;44.516;2023-12-07T15:09:30;12.40;98.70
34989;DHT22;21192;40.182;44.516;2023-12-07T15:11:56;12.40;98.70
34989;DHT22;21192;40.182;44.516;2023-12-07T15:14:22;12.40;98.70
34989;DHT22;21192;40.182;44.516;2023-12-07T15:16:48;12.40;98.80
34989;DHT22;21192;40.182;44.516;2023-12-07T15:19:14;12.30;98.90
34989;DHT22;21192;40.182;44.516;2023-12-07T15:21:40;12.40;98.90
34989;DHT22;21192;40.182;44.516;2023-12-07T15:24:06;12.40;98.90
34989;DHT22;21192;40.182;44.516;2023-12-07T15:26:32;12.40;98.90